createdAt,value
2022-08-08T00:01:10.525Z,23.82
2022-08-08T00:03:47.287Z,23.85
2022-08-08T00:06:28.378Z,23.84
2022-08-08T00:09:07.996Z,23.82
2022-08-08T00:11:46.931Z,23.73
2022-08-08T00:14:48.048Z,23.69
2022-08-08T00:17:58.242Z,23.54
2022-08-08T00:20:26.511Z,23.55
2022-08-08T00:22:57.775Z,23.45
2022-08-08T00:25:39.127Z,23.54
2022-08-08T00:28:35.928Z,23.58
2022-08-08T00:32:28.663Z,23.54
2022-08-08T00:34:20.033Z,23.60
2022-08-08T00:36:54.984Z,23.61
2022-08-08T00:41:07.708Z,23.58
2022-08-08T00:42:48.882Z,23.49
2022-08-08T00:45:42.425Z,23.45
2022-08-08T00:48:30.161Z,23.39
2022-08-08T00:51:38.206Z,23.23
2022-08-08T00:54:46.994Z,23.23
2022-08-08T00:57:56.992Z,23.23
2022-08-08T01:00:27.842Z,23.25
2022-08-08T01:03:58.026Z,23.31
2022-08-08T01:06:33.099Z,23.30
2022-08-08T01:09:35.433Z,23.21
2022-08-08T01:12:50.742Z,23.08
2022-08-08T01:15:44.141Z,22.97
2022-08-08T01:18:59.125Z,22.96
2022-08-08T01:22:07.195Z,22.88
2022-08-08T01:25:17.628Z,22.80
2022-08-08T01:28:09.451Z,22.85
2022-08-08T01:32:02.963Z,22.82
2022-08-08T01:34:30.993Z,22.75
2022-08-08T01:37:58.205Z,22.81
2022-08-08T01:40:30.814Z,22.80
2022-08-08T01:43:07.244Z,22.79
2022-08-08T01:45:54.535Z,22.59
2022-08-08T01:48:34.051Z,22.63
2022-08-08T01:52:04.484Z,22.61
2022-08-08T01:55:45.427Z,22.69
2022-08-08T01:57:19.402Z,22.67
2022-08-08T02:00:02.263Z,22.67
2022-08-08T02:02:41.391Z,22.69
2022-08-08T02:05:23.159Z,22.73
2022-08-08T02:08:03.888Z,22.65
2022-08-08T02:10:46.898Z,22.49
2022-08-08T02:13:54.748Z,22.38
2022-08-08T02:16:21.331Z,22.25
2022-08-08T02:18:58.898Z,22.31
2022-08-08T02:21:42.670Z,22.27
2022-08-08T02:24:17.055Z,22.32
2022-08-08T02:26:58.007Z,22.29
2022-08-08T02:29:46.939Z,22.19
2022-08-08T02:32:44.064Z,22.14
2022-08-08T02:36:04.525Z,22.21
2022-08-08T02:38:50.737Z,22.20
2022-08-08T02:42:04.693Z,22.23
2022-08-08T02:44:59.299Z,22.17
2022-08-08T02:48:05.109Z,22.01
2022-08-08T02:50:55.686Z,21.95
2022-08-08T02:53:33.588Z,21.91
2022-08-08T02:56:33.049Z,21.98
2022-08-08T03:00:01.631Z,22.00
2022-08-08T03:02:55.581Z,21.89
2022-08-08T03:05:45.248Z,21.93
2022-08-08T03:08:51.727Z,21.96
2022-08-08T03:12:02.802Z,21.91
2022-08-08T03:15:58.109Z,21.86
2022-08-08T03:17:59.808Z,21.90
2022-08-08T03:20:51.667Z,21.97
2022-08-08T03:23:24.607Z,21.86
2022-08-08T03:26:06.800Z,21.82
2022-08-08T03:28:38.675Z,21.68
2022-08-08T03:31:28.428Z,21.59
2022-08-08T03:34:04.897Z,21.64
2022-08-08T03:36:34.636Z,21.57
2022-08-08T03:39:15.232Z,21.63
2022-08-08T03:42:12.931Z,21.66
2022-08-08T03:44:38.757Z,21.64
2022-08-08T03:47:19.706Z,21.39
2022-08-08T03:50:00.894Z,21.53
2022-08-08T03:52:34.111Z,21.58
2022-08-08T03:55:55.216Z,21.61
2022-08-08T03:58:31.721Z,21.60
2022-08-08T04:01:01.676Z,21.55
2022-08-08T04:03:59.155Z,21.43
2022-08-08T04:06:29.826Z,21.35
2022-08-08T04:09:10.389Z,21.38
2022-08-08T04:11:48.539Z,21.36
2022-08-08T04:14:34.806Z,21.31
2022-08-08T04:17:22.813Z,21.26
2022-08-08T04:19:56.550Z,21.34
2022-08-08T04:22:29.426Z,21.37
2022-08-08T04:24:59.444Z,21.37
2022-08-08T04:28:03.326Z,21.37
2022-08-08T04:30:23.892Z,21.33
2022-08-08T04:32:53.449Z,21.29
2022-08-08T04:35:23.297Z,21.28
2022-08-08T04:37:53.200Z,21.32
2022-08-08T04:40:25.265Z,21.40
2022-08-08T04:43:01.575Z,21.38
2022-08-08T04:45:31.462Z,21.32
2022-08-08T04:48:03.608Z,21.35
2022-08-08T04:50:37.802Z,21.41
2022-08-08T04:53:14.311Z,21.46
2022-08-08T04:55:57.879Z,21.58
2022-08-08T04:58:29.901Z,21.62
2022-08-08T05:00:59.358Z,21.62
2022-08-08T05:04:09.527Z,21.70
2022-08-08T05:06:25.784Z,21.79
2022-08-08T05:09:02.707Z,21.89
2022-08-08T05:11:38.927Z,21.92
2022-08-08T05:14:12.893Z,21.96
2022-08-08T05:16:52.483Z,22.07
2022-08-08T05:20:11.366Z,22.17
2022-08-08T05:22:19.226Z,22.32
2022-08-08T05:24:49.481Z,22.31
2022-08-08T05:27:19.255Z,22.44
2022-08-08T05:29:52.267Z,22.56
2022-08-08T05:32:28.052Z,22.59
2022-08-08T05:35:05.142Z,22.75
2022-08-08T05:37:52.278Z,22.85
2022-08-08T05:40:28.432Z,22.94
2022-08-08T05:43:02.092Z,23.03
2022-08-08T05:45:42.859Z,23.18
2022-08-08T05:48:28.495Z,23.28
2022-08-08T05:51:14.596Z,23.47
2022-08-08T05:54:24.107Z,23.57
2022-08-08T05:56:34.937Z,23.76
2022-08-08T05:59:12.674Z,23.81
2022-08-08T06:01:55.443Z,24.06
2022-08-08T06:04:29.621Z,24.25
2022-08-08T06:07:01.899Z,24.38
2022-08-08T06:10:00.532Z,24.56
2022-08-08T06:12:29.612Z,24.78
2022-08-08T06:15:01.100Z,24.86
2022-08-08T06:17:51.564Z,24.94
2022-08-08T06:20:26.198Z,25.07
2022-08-08T06:22:56.338Z,25.21
2022-08-08T06:25:33.119Z,25.28
2022-08-08T06:28:18.031Z,25.37
2022-08-08T06:30:49.785Z,25.52
2022-08-08T06:33:36.954Z,25.67
2022-08-08T06:36:12.046Z,25.88
2022-08-08T06:38:43.974Z,25.97
2022-08-08T06:41:15.443Z,26.21
2022-08-08T06:43:47.652Z,26.42
2022-08-08T06:46:29.991Z,26.59
2022-08-08T06:49:02.215Z,26.73
2022-08-08T06:51:49.068Z,26.90
2022-08-08T06:54:21.121Z,26.98
2022-08-08T06:56:53.031Z,27.07
2022-08-08T06:59:22.493Z,27.17
2022-08-08T07:02:26.610Z,27.38
2022-08-08T07:04:51.728Z,27.71
2022-08-08T07:07:26.105Z,27.91
2022-08-08T07:10:00.915Z,28.07
2022-08-08T07:12:33.310Z,28.28
2022-08-08T07:15:06.621Z,28.37
2022-08-08T07:18:01.877Z,28.56
2022-08-08T07:20:50.485Z,28.70
2022-08-08T07:23:23.483Z,28.92
2022-08-08T07:25:54.437Z,29.15
2022-08-08T07:28:31.453Z,29.20
2022-08-08T07:31:01.417Z,29.42
2022-08-08T07:33:37.890Z,29.57
2022-08-08T07:36:23.685Z,29.80
2022-08-08T07:38:53.919Z,30.03
2022-08-08T07:41:25.190Z,30.15
2022-08-08T07:43:54.851Z,30.12
2022-08-08T07:46:30.715Z,30.12
2022-08-08T07:49:00.622Z,30.27
2022-08-08T07:51:44.931Z,30.08
2022-08-08T07:54:27.150Z,30.36
2022-08-08T07:57:16.969Z,30.23
2022-08-08T07:59:51.277Z,29.73
2022-08-08T08:02:35.349Z,29.56
2022-08-08T08:05:15.014Z,29.63
2022-08-08T08:07:52.943Z,30.22
2022-08-08T08:10:30.575Z,29.97
2022-08-08T08:13:25.789Z,30.38
2022-08-08T08:16:12.656Z,30.33
2022-08-08T08:18:55.608Z,29.97
2022-08-08T08:21:44.038Z,30.48
2022-08-08T08:24:18.882Z,30.99
2022-08-08T08:26:54.847Z,31.41
2022-08-08T08:29:27.980Z,31.62
2022-08-08T08:32:03.267Z,31.62
2022-08-08T08:34:35.492Z,31.61
2022-08-08T08:37:08.362Z,31.73
2022-08-08T08:40:00.968Z,31.74
2022-08-08T08:42:35.644Z,31.90
2022-08-08T08:45:21.709Z,31.94
2022-08-08T08:47:54.723Z,31.82
2022-08-08T08:50:33.520Z,31.98
2022-08-08T08:53:54.438Z,32.10
2022-08-08T08:56:02.421Z,32.29
2022-08-08T08:58:35.496Z,32.21
2022-08-08T09:01:10.230Z,32.10
2022-08-08T09:03:47.884Z,32.20
2022-08-08T09:06:26.549Z,32.18
2022-08-08T09:08:57.583Z,32.52
2022-08-08T09:11:33.025Z,32.88
2022-08-08T09:14:03.217Z,32.84
2022-08-08T09:16:33.298Z,33.09
2022-08-08T09:19:02.738Z,33.19
2022-08-08T09:22:02.948Z,33.15
2022-08-08T09:24:22.239Z,32.74
2022-08-08T09:27:02.542Z,32.90
2022-08-08T09:29:34.169Z,33.07
2022-08-08T09:32:05.816Z,33.40
2022-08-08T09:34:42.166Z,33.85
2022-08-08T09:37:46.314Z,34.29
2022-08-08T09:40:11.791Z,34.95
2022-08-08T09:42:51.444Z,35.82
2022-08-08T09:45:54.875Z,36.45
2022-08-08T09:48:21.928Z,37.02
2022-08-08T09:50:56.708Z,38.00
2022-08-08T09:53:54.377Z,38.44
2022-08-08T09:56:24.938Z,38.86
2022-08-08T09:59:20.185Z,40.05
2022-08-08T10:01:59.120Z,41.36
2022-08-08T10:04:42.095Z,42.24
2022-08-08T10:07:15.718Z,43.02
2022-08-08T10:09:59.132Z,43.64
2022-08-08T10:12:38.616Z,43.50
2022-08-08T10:15:27.341Z,45.88
2022-08-08T10:18:09.057Z,46.00
2022-08-08T10:20:58.193Z,47.28
2022-08-08T10:23:55.598Z,48.46
2022-08-08T10:26:58.534Z,49.77
2022-08-08T10:29:23.178Z,50.53
2022-08-08T10:32:12.297Z,50.92
2022-08-08T10:34:46.330Z,50.47
2022-08-08T10:37:16.131Z,47.71
2022-08-08T10:39:54.706Z,47.52
2022-08-08T10:42:27.382Z,46.80
2022-08-08T10:45:02.707Z,45.38
2022-08-08T10:47:44.010Z,43.24
2022-08-08T10:50:18.273Z,40.72
2022-08-08T10:52:47.725Z,39.18
2022-08-08T10:55:40.918Z,37.95
2022-08-08T10:58:08.213Z,34.92
2022-08-08T11:00:53.205Z,34.15
2022-08-08T11:03:36.461Z,33.68
2022-08-08T11:06:06.245Z,33.31
2022-08-08T11:08:53.610Z,33.09
2022-08-08T11:11:32.026Z,32.43
2022-08-08T11:14:16.341Z,32.65
2022-08-08T11:16:47.933Z,32.94
2022-08-08T11:19:21.078Z,32.75
2022-08-08T11:21:55.604Z,32.31
2022-08-08T11:24:25.696Z,32.27
2022-08-08T11:26:57.166Z,31.95
2022-08-08T11:29:41.397Z,31.84
2022-08-08T11:32:16.862Z,31.88
2022-08-08T11:35:27.957Z,32.17
2022-08-08T11:38:43.485Z,33.10
2022-08-08T11:40:31.454Z,33.88
2022-08-08T11:43:01.147Z,34.25
2022-08-08T11:45:36.736Z,34.67
2022-08-08T11:48:20.273Z,34.13
2022-08-08T11:50:52.801Z,33.60
2022-08-08T11:53:24.218Z,33.23
2022-08-08T11:55:54.109Z,33.32
2022-08-08T11:58:34.880Z,33.32
2022-08-08T12:01:12.491Z,32.90
2022-08-08T12:03:48.213Z,32.81
2022-08-08T12:06:22.245Z,32.14
2022-08-08T12:08:53.792Z,32.30
2022-08-08T12:11:28.506Z,32.42
2022-08-08T12:14:05.826Z,32.48
2022-08-08T12:16:46.612Z,31.98
2022-08-08T12:19:31.206Z,31.65
2022-08-08T12:22:13.211Z,31.87
2022-08-08T12:24:53.907Z,31.50
2022-08-08T12:27:26.538Z,30.81
2022-08-08T12:29:59.007Z,31.50
2022-08-08T12:32:31.393Z,32.09
2022-08-08T12:35:16.885Z,32.10
2022-08-08T12:38:02.915Z,32.17
2022-08-08T12:40:54.083Z,32.45
2022-08-08T12:43:32.960Z,32.82
2022-08-08T12:46:26.424Z,33.25
2022-08-08T12:49:25.173Z,33.74
2022-08-08T12:51:58.876Z,33.46
2022-08-08T12:54:36.532Z,33.80
2022-08-08T12:57:17.695Z,34.16
2022-08-08T13:00:04.421Z,34.07
2022-08-08T13:02:37.030Z,33.33
2022-08-08T13:05:25.669Z,32.96
2022-08-08T13:08:03.951Z,32.35
2022-08-08T13:10:55.709Z,32.89
2022-08-08T13:13:35.005Z,32.81
2022-08-08T13:16:19.546Z,32.70
2022-08-08T13:18:56.970Z,32.75
2022-08-08T13:21:48.641Z,32.59
2022-08-08T13:24:19.068Z,31.96
2022-08-08T13:27:12.282Z,32.01
2022-08-08T13:29:51.068Z,32.08
2022-08-08T13:32:23.590Z,32.23
2022-08-08T13:34:55.687Z,31.88
2022-08-08T13:37:28.058Z,31.71
2022-08-08T13:40:17.969Z,31.22
2022-08-08T13:42:59.679Z,31.20
2022-08-08T13:45:30.893Z,31.46
2022-08-08T13:48:01.006Z,31.43
2022-08-08T13:50:38.335Z,31.53
2022-08-08T13:53:25.077Z,31.49
2022-08-08T13:56:01.543Z,31.53
2022-08-08T13:58:34.625Z,31.40
2022-08-08T14:01:13.850Z,31.26
2022-08-08T14:03:55.176Z,31.33
2022-08-08T14:06:32.866Z,31.28
2022-08-08T14:09:18.474Z,31.48
2022-08-08T14:11:54.429Z,31.71
2022-08-08T14:14:27.295Z,31.29
2022-08-08T14:16:57.281Z,31.59
2022-08-08T14:19:57.403Z,31.59
2022-08-08T14:22:25.804Z,31.69
2022-08-08T14:24:59.854Z,31.63
2022-08-08T14:27:30.823Z,31.94
2022-08-08T14:30:17.294Z,32.10
2022-08-08T14:32:53.129Z,31.97
2022-08-08T14:35:35.908Z,31.74
2022-08-08T14:38:33.064Z,31.70
2022-08-08T14:40:59.075Z,31.54
2022-08-08T14:44:02.577Z,31.25
2022-08-08T14:46:32.520Z,31.28
2022-08-08T14:49:09.377Z,31.32
2022-08-08T14:51:53.350Z,31.81
2022-08-08T14:54:29.343Z,31.81
2022-08-08T14:56:59.360Z,31.65
2022-08-08T14:59:44.732Z,32.47
2022-08-08T15:02:31.022Z,32.93
2022-08-08T15:05:10.680Z,33.57
2022-08-08T15:07:41.551Z,33.94
2022-08-08T15:10:13.050Z,34.12
2022-08-08T15:12:42.686Z,33.98
2022-08-08T15:15:18.822Z,34.13
2022-08-08T15:18:05.972Z,34.40
2022-08-08T15:20:35.553Z,34.67
2022-08-08T15:23:05.887Z,34.94
2022-08-08T15:25:35.352Z,34.89
2022-08-08T15:28:33.699Z,35.07
2022-08-08T15:31:00.865Z,35.19
2022-08-08T15:33:35.544Z,35.21
2022-08-08T15:36:08.682Z,34.92
2022-08-08T15:38:40.595Z,34.80
2022-08-08T15:41:24.601Z,34.76
2022-08-08T15:44:00.526Z,34.88
2022-08-08T15:46:34.811Z,35.10
2022-08-08T15:49:07.481Z,34.99
2022-08-08T15:51:39.414Z,34.22
2022-08-08T15:54:18.306Z,33.62
2022-08-08T15:56:48.496Z,33.57
2022-08-08T15:59:17.945Z,33.34
2022-08-08T16:01:59.762Z,33.34
2022-08-08T16:04:32.740Z,33.33
2022-08-08T16:07:02.276Z,33.39
2022-08-08T16:13:14.182Z,33.32
2022-08-08T16:13:20.429Z,33.27
2022-08-08T16:15:12.503Z,33.54
2022-08-08T16:18:06.341Z,33.70
2022-08-08T16:20:37.975Z,33.45
2022-08-08T16:23:11.632Z,33.31
2022-08-08T16:25:45.761Z,33.02
2022-08-08T16:28:32.637Z,33.23
2022-08-08T16:31:07.651Z,33.61
2022-08-08T16:33:38.678Z,33.73
2022-08-08T16:36:15.770Z,33.77
2022-08-08T16:38:53.566Z,33.92
2022-08-08T16:41:23.562Z,33.86
2022-08-08T16:43:53.691Z,33.08
2022-08-08T16:46:43.680Z,33.18
2022-08-08T16:49:14.194Z,33.05
2022-08-08T16:55:06.929Z,33.30
2022-08-08T16:55:07.217Z,33.13
2022-08-08T16:58:13.201Z,33.15
2022-08-08T17:00:21.473Z,32.89
2022-08-08T17:02:56.671Z,33.04
2022-08-08T17:05:31.304Z,33.12
2022-08-08T17:08:16.869Z,33.13
2022-08-08T17:10:57.489Z,33.19
2022-08-08T17:13:50.003Z,33.36
2022-08-08T17:16:22.295Z,33.37
2022-08-08T17:18:53.910Z,33.50
2022-08-08T17:21:26.073Z,33.21
2022-08-08T17:24:02.736Z,33.13
2022-08-08T17:26:33.126Z,33.28
2022-08-08T17:29:04.476Z,33.15
2022-08-08T17:31:44.243Z,33.11
2022-08-08T17:34:53.490Z,33.28
2022-08-08T17:37:06.689Z,33.26
2022-08-08T17:40:04.944Z,33.13
2022-08-08T17:42:32.716Z,33.10
2022-08-08T17:45:02.739Z,33.09
2022-08-08T17:47:40.256Z,32.94
2022-08-08T17:50:11.159Z,32.89
2022-08-08T17:52:43.103Z,32.81
2022-08-08T17:56:04.774Z,32.71
2022-08-08T17:58:05.190Z,32.62
2022-08-08T18:00:38.971Z,32.61
2022-08-08T18:03:13.096Z,32.50
2022-08-08T18:05:49.076Z,32.44
2022-08-08T18:08:24.901Z,32.36
2022-08-08T18:11:15.301Z,32.29
2022-08-08T18:13:46.417Z,32.24
2022-08-08T18:16:23.099Z,32.19
2022-08-08T18:18:56.641Z,32.16
2022-08-08T18:21:59.050Z,32.08
2022-08-08T18:24:18.944Z,31.98
2022-08-08T18:26:56.634Z,31.88
2022-08-08T18:29:33.167Z,31.75
2022-08-08T18:32:04.561Z,31.65
2022-08-08T18:34:35.090Z,31.58
2022-08-08T18:37:06.626Z,31.46
2022-08-08T18:39:37.849Z,31.37
2022-08-08T18:42:15.691Z,31.18
2022-08-08T18:44:54.863Z,31.12
2022-08-08T18:47:26.001Z,31.02
2022-08-08T18:50:00.365Z,30.90
2022-08-08T18:52:33.929Z,30.80
2022-08-08T18:55:10.209Z,30.71
2022-08-08T18:57:45.374Z,30.66
2022-08-08T19:00:20.123Z,30.54
2022-08-08T19:02:57.083Z,30.39
2022-08-08T19:05:34.006Z,30.22
2022-08-08T19:08:24.821Z,30.00
2022-08-08T19:10:58.883Z,29.92
2022-08-08T19:13:53.891Z,29.76
2022-08-08T19:16:23.618Z,29.61
2022-08-08T19:19:02.033Z,29.46
2022-08-08T19:21:33.297Z,29.39
2022-08-08T19:24:43.617Z,29.33
2022-08-08T19:27:08.761Z,29.22
2022-08-08T19:29:45.746Z,29.17
2022-08-08T19:32:19.637Z,29.12
2022-08-08T19:34:52.919Z,29.12
2022-08-08T19:37:42.725Z,29.06
2022-08-08T19:40:16.271Z,29.01
2022-08-08T19:42:46.173Z,28.92
2022-08-08T19:45:58.658Z,28.77
2022-08-08T19:48:28.779Z,28.80
2022-08-08T19:50:59.044Z,28.83
2022-08-08T19:53:53.536Z,28.84
2022-08-08T19:56:25.709Z,28.76
2022-08-08T19:59:08.129Z,28.51
2022-08-08T20:02:01.843Z,28.38
2022-08-08T20:04:30.327Z,28.50
2022-08-08T20:07:05.406Z,28.35
2022-08-08T20:09:55.888Z,27.74
2022-08-08T20:12:31.939Z,27.29
2022-08-08T20:15:15.072Z,27.49
2022-08-08T20:17:49.867Z,27.65
2022-08-08T20:20:22.212Z,27.66
2022-08-08T20:22:54.052Z,27.76
2022-08-08T20:25:29.780Z,27.86
2022-08-08T20:28:07.103Z,27.78
2022-08-08T20:30:56.111Z,27.86
2022-08-08T20:34:03.608Z,27.82
2022-08-08T20:36:22.308Z,27.88
2022-08-08T20:38:51.967Z,27.84
2022-08-08T20:41:21.410Z,27.74
2022-08-08T20:43:50.972Z,27.64
2022-08-08T20:46:25.639Z,27.61
2022-08-08T20:48:59.916Z,27.65
2022-08-08T20:51:32.443Z,27.56
2022-08-08T20:54:13.976Z,27.57
2022-08-08T20:57:17.153Z,27.54
2022-08-08T20:59:41.200Z,27.48
2022-08-08T21:02:12.441Z,27.49
2022-08-08T21:04:47.649Z,27.54
2022-08-08T21:07:31.231Z,27.58
2022-08-08T21:10:13.091Z,27.63
2022-08-08T21:12:44.548Z,27.65
2022-08-08T21:15:16.780Z,27.57
2022-08-08T21:18:05.549Z,27.48
2022-08-08T21:20:37.705Z,27.45
2022-08-08T21:23:09.292Z,27.40
2022-08-08T21:25:38.913Z,27.32
2022-08-08T21:28:15.036Z,27.24
2022-08-08T21:30:52.042Z,27.25
2022-08-08T21:33:22.078Z,27.16
2022-08-08T21:36:14.505Z,27.15
2022-08-08T21:38:43.516Z,27.04
2022-08-08T21:41:18.521Z,27.00
2022-08-08T21:44:04.302Z,26.82
2022-08-08T21:48:00.658Z,26.76
2022-08-08T21:49:23.162Z,26.67
2022-08-08T21:54:33.037Z,26.56
2022-08-08T21:55:03.469Z,26.50
2022-08-08T21:57:42.902Z,26.49
2022-08-08T22:00:26.191Z,26.52
2022-08-08T22:02:55.788Z,26.56
2022-08-08T22:05:25.290Z,26.58
2022-08-08T22:08:01.686Z,26.61
2022-08-08T22:10:32.528Z,26.63
2022-08-08T22:13:17.736Z,26.56
2022-08-08T22:15:59.487Z,26.51
2022-08-08T22:18:29.659Z,26.55
2022-08-08T22:21:01.576Z,26.38
2022-08-08T22:23:50.362Z,26.40
2022-08-08T22:26:28.754Z,26.35
2022-08-08T22:29:14.966Z,26.34
2022-08-08T22:31:58.214Z,26.29
2022-08-08T22:34:31.623Z,26.24
2022-08-08T22:37:01.080Z,26.19
2022-08-08T22:39:46.332Z,26.19
2022-08-08T22:42:23.901Z,26.14
2022-08-08T22:44:57.072Z,26.06
2022-08-08T22:47:37.556Z,26.14
2022-08-08T22:50:25.415Z,26.06
2022-08-08T22:54:15.753Z,26.03
2022-08-08T22:55:58.722Z,25.96
2022-08-08T22:58:30.865Z,25.93
2022-08-08T23:01:01.104Z,25.89
2022-08-08T23:03:52.557Z,25.86
2022-08-08T23:06:20.130Z,25.74
2022-08-08T23:08:55.576Z,25.82
2022-08-08T23:12:28.968Z,25.73
2022-08-08T23:14:21.139Z,25.74
2022-08-08T23:16:59.067Z,25.65
2022-08-08T23:19:30.897Z,25.59
2022-08-08T23:22:01.620Z,25.55
2022-08-08T23:24:36.330Z,25.53
2022-08-08T23:27:09.663Z,25.54
2022-08-08T23:29:39.318Z,25.57
2022-08-08T23:32:11.715Z,25.51
2022-08-08T23:34:49.586Z,25.44
2022-08-08T23:38:01.960Z,25.45
2022-08-08T23:40:22.052Z,25.38
2022-08-08T23:42:54.904Z,25.33
2022-08-08T23:49:03.021Z,25.34
2022-08-08T23:49:05.324Z,25.35
2022-08-08T23:51:03.182Z,25.34
2022-08-08T23:54:06.319Z,25.25
2022-08-08T23:56:23.839Z,25.28
2022-08-08T23:59:04.241Z,25.20
